sensor_id;sensor_type;location;lat;lon;timestamp;P1;durP1;ratioP1;P2;durP2;ratioP2
11305;SDS011;5708;50.660;6.778;2024-02-23T00:01:29;1.55;;;0.30;;
11305;SDS011;5708;50.660;6.778;2024-02-23T00:03:55;0.50;;;0.20;;
11305;SDS011;5708;50.660;6.778;2024-02-23T00:06:20;0.55;;;0.15;;
11305;SDS011;5708;50.660;6.778;2024-02-23T00:08:47;0.93;;;0.30;;
11305;SDS011;5708;50.660;6.778;2024-02-23T00:11:13;0.10;;;0.10;;
11305;SDS011;5708;50.660;6.778;2024-02-23T00:13:38;0.82;;;0.22;;
11305;SDS011;5708;50.660;6.778;2024-02-23T00:16:04;0.95;;;0.20;;
11305;SDS011;5708;50.660;6.778;2024-02-23T00:18:29;0.17;;;0.17;;
11305;SDS011;5708;50.660;6.778;2024-02-23T00:20:54;1.25;;;0.20;;
11305;SDS011;5708;50.660;6.778;2024-02-23T00:23:21;0.43;;;0.20;;
11305;SDS011;5708;50.660;6.778;2024-02-23T00:25:46;1.23;;;0.20;;
11305;SDS011;5708;50.660;6.778;2024-02-23T00:28:12;0.85;;;0.20;;
11305;SDS011;5708;50.660;6.778;2024-02-23T00:30:37;0.60;;;0.35;;
11305;SDS011;5708;50.660;6.778;2024-02-23T00:33:02;1.08;;;0.30;;
11305;SDS011;5708;50.660;6.778;2024-02-23T00:35:28;1.27;;;0.32;;
11305;SDS011;5708;50.660;6.778;2024-02-23T00:37:53;0.90;;;0.32;;
11305;SDS011;5708;50.660;6.778;2024-02-23T00:40:18;0.70;;;0.20;;
11305;SDS011;5708;50.660;6.778;2024-02-23T00:42:44;3.05;;;0.30;;
11305;SDS011;5708;50.660;6.778;2024-02-23T00:45:09;1.52;;;0.40;;
11305;SDS011;5708;50.660;6.778;2024-02-23T00:47:34;1.23;;;0.40;;
11305;SDS011;5708;50.660;6.778;2024-02-23T00:50:00;1.90;;;0.63;;
11305;SDS011;5708;50.660;6.778;2024-02-23T00:52:26;2.28;;;0.52;;
11305;SDS011;5708;50.660;6.778;2024-02-23T00:54:52;3.58;;;0.50;;
11305;SDS011;5708;50.660;6.778;2024-02-23T00:57:17;1.83;;;0.50;;
11305;SDS011;5708;50.660;6.778;2024-02-23T00:59:46;1.67;;;0.60;;
11305;SDS011;5708;50.660;6.778;2024-02-23T01:02:12;3.58;;;0.77;;
11305;SDS011;5708;50.660;6.778;2024-02-23T01:04:37;1.20;;;0.50;;
11305;SDS011;5708;50.660;6.778;2024-02-23T01:07:02;2.13;;;0.50;;
11305;SDS011;5708;50.660;6.778;2024-02-23T01:09:28;0.80;;;0.32;;
11305;SDS011;5708;50.660;6.778;2024-02-23T01:11:53;1.70;;;0.40;;
11305;SDS011;5708;50.660;6.778;2024-02-23T01:14:18;6.25;;;1.30;;
11305;SDS011;5708;50.660;6.778;2024-02-23T01:16:44;1.55;;;0.40;;
11305;SDS011;5708;50.660;6.778;2024-02-23T01:19:09;3.92;;;0.70;;
11305;SDS011;5708;50.660;6.778;2024-02-23T01:21:34;7.10;;;0.70;;
11305;SDS011;5708;50.660;6.778;2024-02-23T01:24:00;3.22;;;0.52;;
11305;SDS011;5708;50.660;6.778;2024-02-23T01:26:25;3.22;;;0.52;;
11305;SDS011;5708;50.660;6.778;2024-02-23T01:28:51;2.22;;;0.50;;
11305;SDS011;5708;50.660;6.778;2024-02-23T01:31:16;6.05;;;0.60;;
11305;SDS011;5708;50.660;6.778;2024-02-23T01:33:41;3.30;;;0.50;;
11305;SDS011;5708;50.660;6.778;2024-02-23T01:36:07;5.05;;;0.52;;
11305;SDS011;5708;50.660;6.778;2024-02-23T01:38:32;2.75;;;0.50;;
11305;SDS011;5708;50.660;6.778;2024-02-23T01:40:59;4.32;;;0.68;;
11305;SDS011;5708;50.660;6.778;2024-02-23T01:43:24;2.75;;;0.60;;
11305;SDS011;5708;50.660;6.778;2024-02-23T01:45:50;1.85;;;0.50;;
11305;SDS011;5708;50.660;6.778;2024-02-23T01:48:16;3.40;;;0.60;;
11305;SDS011;5708;50.660;6.778;2024-02-23T01:50:42;2.47;;;0.50;;
11305;SDS011;5708;50.660;6.778;2024-02-23T01:53:08;2.70;;;0.45;;
11305;SDS011;5708;50.660;6.778;2024-02-23T01:55:35;2.83;;;0.40;;
11305;SDS011;5708;50.660;6.778;2024-02-23T01:58:01;2.50;;;0.63;;
11305;SDS011;5708;50.660;6.778;2024-02-23T02:00:27;1.92;;;0.77;;
11305;SDS011;5708;50.660;6.778;2024-02-23T02:02:53;3.33;;;0.50;;
11305;SDS011;5708;50.660;6.778;2024-02-23T02:05:18;3.15;;;0.70;;
11305;SDS011;5708;50.660;6.778;2024-02-23T02:07:44;5.80;;;0.70;;
11305;SDS011;5708;50.660;6.778;2024-02-23T02:10:10;3.40;;;0.75;;
11305;SDS011;5708;50.660;6.778;2024-02-23T02:12:35;3.13;;;0.75;;
11305;SDS011;5708;50.660;6.778;2024-02-23T02:15:01;3.53;;;0.60;;
11305;SDS011;5708;50.660;6.778;2024-02-23T02:17:29;2.30;;;0.73;;
11305;SDS011;5708;50.660;6.778;2024-02-23T02:19:54;2.17;;;0.50;;
11305;SDS011;5708;50.660;6.778;2024-02-23T02:22:20;3.58;;;0.40;;
11305;SDS011;5708;50.660;6.778;2024-02-23T02:24:45;5.05;;;0.90;;
11305;SDS011;5708;50.660;6.778;2024-02-23T02:27:12;3.13;;;0.52;;
11305;SDS011;5708;50.660;6.778;2024-02-23T02:29:38;2.95;;;0.70;;
11305;SDS011;5708;50.660;6.778;2024-02-23T02:32:03;3.17;;;0.65;;
11305;SDS011;5708;50.660;6.778;2024-02-23T02:34:29;3.17;;;0.85;;
11305;SDS011;5708;50.660;6.778;2024-02-23T02:36:55;4.03;;;0.60;;
11305;SDS011;5708;50.660;6.778;2024-02-23T02:39:20;5.53;;;0.90;;
11305;SDS011;5708;50.660;6.778;2024-02-23T02:41:47;5.07;;;0.85;;
11305;SDS011;5708;50.660;6.778;2024-02-23T02:44:13;5.00;;;0.70;;
11305;SDS011;5708;50.660;6.778;2024-02-23T02:46:39;4.72;;;0.90;;
11305;SDS011;5708;50.660;6.778;2024-02-23T02:49:04;6.63;;;0.95;;
11305;SDS011;5708;50.660;6.778;2024-02-23T02:51:29;5.05;;;0.88;;
11305;SDS011;5708;50.660;6.778;2024-02-23T02:53:55;2.75;;;0.70;;
11305;SDS011;5708;50.660;6.778;2024-02-23T02:56:20;5.95;;;1.00;;
11305;SDS011;5708;50.660;6.778;2024-02-23T02:58:45;6.40;;;1.23;;
11305;SDS011;5708;50.660;6.778;2024-02-23T03:01:11;6.20;;;1.20;;
11305;SDS011;5708;50.660;6.778;2024-02-23T03:03:36;2.05;;;0.50;;
11305;SDS011;5708;50.660;6.778;2024-02-23T03:06:02;6.82;;;0.98;;
11305;SDS011;5708;50.660;6.778;2024-02-23T03:08:27;3.90;;;0.70;;
11305;SDS011;5708;50.660;6.778;2024-02-23T03:10:52;4.45;;;0.95;;
11305;SDS011;5708;50.660;6.778;2024-02-23T03:13:18;7.38;;;0.77;;
11305;SDS011;5708;50.660;6.778;2024-02-23T03:15:43;8.25;;;1.30;;
11305;SDS011;5708;50.660;6.778;2024-02-23T03:18:08;4.32;;;0.80;;
11305;SDS011;5708;50.660;6.778;2024-02-23T03:20:35;3.55;;;0.90;;
11305;SDS011;5708;50.660;6.778;2024-02-23T03:23:00;2.30;;;0.60;;
11305;SDS011;5708;50.660;6.778;2024-02-23T03:25:28;5.90;;;1.10;;
11305;SDS011;5708;50.660;6.778;2024-02-23T03:27:53;5.60;;;0.93;;
11305;SDS011;5708;50.660;6.778;2024-02-23T03:30:19;3.70;;;0.90;;
11305;SDS011;5708;50.660;6.778;2024-02-23T03:32:44;4.97;;;1.05;;
11305;SDS011;5708;50.660;6.778;2024-02-23T03:35:11;2.55;;;0.80;;
11305;SDS011;5708;50.660;6.778;2024-02-23T03:37:37;3.67;;;0.88;;
11305;SDS011;5708;50.660;6.778;2024-02-23T03:40:03;7.55;;;1.42;;
11305;SDS011;5708;50.660;6.778;2024-02-23T03:42:29;8.57;;;1.00;;
11305;SDS011;5708;50.660;6.778;2024-02-23T03:44:55;7.75;;;1.63;;
11305;SDS011;5708;50.660;6.778;2024-02-23T03:47:20;5.68;;;1.10;;
11305;SDS011;5708;50.660;6.778;2024-02-23T03:49:46;5.18;;;1.60;;
11305;SDS011;5708;50.660;6.778;2024-02-23T03:52:11;7.80;;;1.52;;
11305;SDS011;5708;50.660;6.778;2024-02-23T03:54:37;7.32;;;1.10;;
11305;SDS011;5708;50.660;6.778;2024-02-23T03:57:02;5.97;;;1.13;;
11305;SDS011;5708;50.660;6.778;2024-02-23T03:59:28;4.03;;;1.10;;
11305;SDS011;5708;50.660;6.778;2024-02-23T04:01:53;5.97;;;1.00;;
11305;SDS011;5708;50.660;6.778;2024-02-23T04:04:19;4.55;;;0.73;;
11305;SDS011;5708;50.660;6.778;2024-02-23T04:06:44;2.75;;;0.70;;
11305;SDS011;5708;50.660;6.778;2024-02-23T04:09:09;5.70;;;0.90;;
11305;SDS011;5708;50.660;6.778;2024-02-23T04:11:35;5.63;;;0.93;;
11305;SDS011;5708;50.660;6.778;2024-02-23T04:14:00;8.52;;;1.27;;
11305;SDS011;5708;50.660;6.778;2024-02-23T04:16:26;4.57;;;1.10;;
11305;SDS011;5708;50.660;6.778;2024-02-23T04:18:52;2.22;;;0.80;;
11305;SDS011;5708;50.660;6.778;2024-02-23T04:21:18;5.13;;;1.35;;
11305;SDS011;5708;50.660;6.778;2024-02-23T04:23:43;6.15;;;0.90;;
11305;SDS011;5708;50.660;6.778;2024-02-23T04:26:09;6.57;;;0.93;;
11305;SDS011;5708;50.660;6.778;2024-02-23T04:28:34;7.25;;;1.55;;
11305;SDS011;5708;50.660;6.778;2024-02-23T04:30:59;6.03;;;1.80;;
11305;SDS011;5708;50.660;6.778;2024-02-23T04:33:25;10.05;;;1.90;;
11305;SDS011;5708;50.660;6.778;2024-02-23T04:35:51;6.13;;;1.77;;
11305;SDS011;5708;50.660;6.778;2024-02-23T04:38:16;8.07;;;1.40;;
11305;SDS011;5708;50.660;6.778;2024-02-23T04:40:41;9.45;;;1.35;;
11305;SDS011;5708;50.660;6.778;2024-02-23T04:43:07;9.18;;;1.38;;
11305;SDS011;5708;50.660;6.778;2024-02-23T04:45:32;10.10;;;1.80;;
11305;SDS011;5708;50.660;6.778;2024-02-23T04:47:57;10.20;;;1.80;;
11305;SDS011;5708;50.660;6.778;2024-02-23T04:50:23;10.45;;;1.70;;
11305;SDS011;5708;50.660;6.778;2024-02-23T04:52:48;7.05;;;1.52;;
11305;SDS011;5708;50.660;6.778;2024-02-23T04:55:15;9.88;;;1.95;;
11305;SDS011;5708;50.660;6.778;2024-02-23T04:57:40;6.93;;;1.42;;
11305;SDS011;5708;50.660;6.778;2024-02-23T05:00:05;8.57;;;1.45;;
11305;SDS011;5708;50.660;6.778;2024-02-23T05:02:32;5.47;;;1.20;;
11305;SDS011;5708;50.660;6.778;2024-02-23T05:05:00;6.22;;;1.45;;
11305;SDS011;5708;50.660;6.778;2024-02-23T05:07:33;6.03;;;1.40;;
11305;SDS011;5708;50.660;6.778;2024-02-23T05:09:59;7.15;;;1.52;;
11305;SDS011;5708;50.660;6.778;2024-02-23T05:12:24;7.72;;;1.27;;
11305;SDS011;5708;50.660;6.778;2024-02-23T05:14:49;9.15;;;1.60;;
11305;SDS011;5708;50.660;6.778;2024-02-23T05:17:15;4.75;;;1.02;;
11305;SDS011;5708;50.660;6.778;2024-02-23T05:19:40;5.75;;;1.25;;
11305;SDS011;5708;50.660;6.778;2024-02-23T05:22:05;8.35;;;1.75;;
11305;SDS011;5708;50.660;6.778;2024-02-23T05:24:31;3.78;;;0.95;;
11305;SDS011;5708;50.660;6.778;2024-02-23T05:26:57;5.88;;;1.33;;
11305;SDS011;5708;50.660;6.778;2024-02-23T05:29:23;5.88;;;1.38;;
11305;SDS011;5708;50.660;6.778;2024-02-23T05:31:52;4.07;;;1.25;;
11305;SDS011;5708;50.660;6.778;2024-02-23T05:34:17;8.00;;;1.48;;
11305;SDS011;5708;50.660;6.778;2024-02-23T05:36:46;8.20;;;1.50;;
11305;SDS011;5708;50.660;6.778;2024-02-23T05:39:12;5.82;;;1.30;;
11305;SDS011;5708;50.660;6.778;2024-02-23T05:41:41;6.68;;;1.42;;
11305;SDS011;5708;50.660;6.778;2024-02-23T05:44:06;5.90;;;1.80;;
11305;SDS011;5708;50.660;6.778;2024-02-23T05:46:35;8.00;;;2.50;;
11305;SDS011;5708;50.660;6.778;2024-02-23T05:49:01;6.25;;;1.50;;
11305;SDS011;5708;50.660;6.778;2024-02-23T05:51:29;5.10;;;1.08;;
11305;SDS011;5708;50.660;6.778;2024-02-23T05:53:54;5.30;;;1.15;;
11305;SDS011;5708;50.660;6.778;2024-02-23T05:56:19;8.52;;;1.13;;
11305;SDS011;5708;50.660;6.778;2024-02-23T05:58:45;7.00;;;1.35;;
11305;SDS011;5708;50.660;6.778;2024-02-23T06:01:10;6.00;;;0.90;;
11305;SDS011;5708;50.660;6.778;2024-02-23T06:03:35;4.80;;;0.70;;
11305;SDS011;5708;50.660;6.778;2024-02-23T06:06:01;7.10;;;1.00;;
11305;SDS011;5708;50.660;6.778;2024-02-23T06:08:26;3.30;;;0.70;;
11305;SDS011;5708;50.660;6.778;2024-02-23T06:10:51;7.25;;;0.90;;
11305;SDS011;5708;50.660;6.778;2024-02-23T06:13:17;4.72;;;0.90;;
11305;SDS011;5708;50.660;6.778;2024-02-23T06:15:42;5.50;;;0.80;;
11305;SDS011;5708;50.660;6.778;2024-02-23T06:18:08;5.57;;;1.20;;
11305;SDS011;5708;50.660;6.778;2024-02-23T06:20:33;8.63;;;1.48;;
11305;SDS011;5708;50.660;6.778;2024-02-23T06:22:59;5.28;;;1.63;;
11305;SDS011;5708;50.660;6.778;2024-02-23T06:25:24;10.00;;;2.35;;
11305;SDS011;5708;50.660;6.778;2024-02-23T06:27:49;6.45;;;1.38;;
11305;SDS011;5708;50.660;6.778;2024-02-23T06:30:15;3.97;;;0.88;;
11305;SDS011;5708;50.660;6.778;2024-02-23T06:32:40;5.65;;;0.90;;
11305;SDS011;5708;50.660;6.778;2024-02-23T06:35:05;6.80;;;1.10;;
11305;SDS011;5708;50.660;6.778;2024-02-23T06:37:31;3.20;;;0.68;;
11305;SDS011;5708;50.660;6.778;2024-02-23T06:39:57;7.13;;;0.90;;
11305;SDS011;5708;50.660;6.778;2024-02-23T06:42:23;3.50;;;0.90;;
11305;SDS011;5708;50.660;6.778;2024-02-23T06:44:48;4.75;;;1.23;;
11305;SDS011;5708;50.660;6.778;2024-02-23T06:47:14;6.38;;;1.23;;
11305;SDS011;5708;50.660;6.778;2024-02-23T06:49:43;6.72;;;1.33;;
11305;SDS011;5708;50.660;6.778;2024-02-23T06:52:09;5.32;;;1.13;;
11305;SDS011;5708;50.660;6.778;2024-02-23T06:54:34;7.32;;;1.23;;
11305;SDS011;5708;50.660;6.778;2024-02-23T06:57:00;9.10;;;1.48;;
11305;SDS011;5708;50.660;6.778;2024-02-23T06:59:25;4.65;;;1.10;;
11305;SDS011;5708;50.660;6.778;2024-02-23T07:01:50;4.63;;;0.98;;
11305;SDS011;5708;50.660;6.778;2024-02-23T07:04:16;6.65;;;1.17;;
11305;SDS011;5708;50.660;6.778;2024-02-23T07:06:42;9.35;;;1.48;;
11305;SDS011;5708;50.660;6.778;2024-02-23T07:09:08;6.50;;;1.38;;
11305;SDS011;5708;50.660;6.778;2024-02-23T07:11:33;9.23;;;1.52;;
11305;SDS011;5708;50.660;6.778;2024-02-23T07:13:58;8.77;;;1.15;;
11305;SDS011;5708;50.660;6.778;2024-02-23T07:16:24;7.65;;;0.93;;
11305;SDS011;5708;50.660;6.778;2024-02-23T07:18:49;8.23;;;1.10;;
11305;SDS011;5708;50.660;6.778;2024-02-23T07:21:17;7.28;;;1.15;;
11305;SDS011;5708;50.660;6.778;2024-02-23T07:23:42;10.40;;;1.48;;
11305;SDS011;5708;50.660;6.778;2024-02-23T07:26:08;7.78;;;1.05;;
11305;SDS011;5708;50.660;6.778;2024-02-23T07:28:33;4.30;;;1.08;;
11305;SDS011;5708;50.660;6.778;2024-02-23T07:30:58;11.98;;;1.10;;
11305;SDS011;5708;50.660;6.778;2024-02-23T07:33:23;8.00;;;1.10;;
11305;SDS011;5708;50.660;6.778;2024-02-23T07:35:49;5.85;;;1.30;;
11305;SDS011;5708;50.660;6.778;2024-02-23T07:38:14;6.20;;;1.33;;
11305;SDS011;5708;50.660;6.778;2024-02-23T07:40:40;7.85;;;1.17;;
11305;SDS011;5708;50.660;6.778;2024-02-23T07:43:05;3.63;;;0.90;;
11305;SDS011;5708;50.660;6.778;2024-02-23T07:45:30;9.88;;;1.23;;
11305;SDS011;5708;50.660;6.778;2024-02-23T07:47:56;6.82;;;1.20;;
11305;SDS011;5708;50.660;6.778;2024-02-23T07:50:21;8.07;;;0.90;;
11305;SDS011;5708;50.660;6.778;2024-02-23T07:52:46;6.88;;;0.95;;
11305;SDS011;5708;50.660;6.778;2024-02-23T07:55:12;6.78;;;0.80;;
11305;SDS011;5708;50.660;6.778;2024-02-23T07:57:37;6.68;;;1.08;;
11305;SDS011;5708;50.660;6.778;2024-02-23T08:00:04;8.52;;;1.10;;
11305;SDS011;5708;50.660;6.778;2024-02-23T08:02:32;9.57;;;1.15;;
11305;SDS011;5708;50.660;6.778;2024-02-23T08:04:57;6.18;;;0.98;;
11305;SDS011;5708;50.660;6.778;2024-02-23T08:07:22;4.93;;;0.98;;
11305;SDS011;5708;50.660;6.778;2024-02-23T08:09:48;8.65;;;1.00;;
11305;SDS011;5708;50.660;6.778;2024-02-23T08:12:13;6.97;;;1.25;;
11305;SDS011;5708;50.660;6.778;2024-02-23T08:14:38;7.63;;;0.88;;
11305;SDS011;5708;50.660;6.778;2024-02-23T08:17:04;6.78;;;1.10;;
11305;SDS011;5708;50.660;6.778;2024-02-23T08:19:29;5.95;;;1.00;;
11305;SDS011;5708;50.660;6.778;2024-02-23T08:21:55;6.65;;;0.90;;
11305;SDS011;5708;50.660;6.778;2024-02-23T08:24:20;5.53;;;1.30;;
11305;SDS011;5708;50.660;6.778;2024-02-23T08:26:46;5.85;;;0.93;;
11305;SDS011;5708;50.660;6.778;2024-02-23T08:29:11;8.27;;;1.27;;
11305;SDS011;5708;50.660;6.778;2024-02-23T08:31:36;6.65;;;1.20;;
11305;SDS011;5708;50.660;6.778;2024-02-23T08:34:02;4.57;;;1.10;;
11305;SDS011;5708;50.660;6.778;2024-02-23T08:36:27;6.45;;;1.40;;
11305;SDS011;5708;50.660;6.778;2024-02-23T08:38:52;2.70;;;0.82;;
11305;SDS011;5708;50.660;6.778;2024-02-23T08:41:18;5.80;;;0.90;;
11305;SDS011;5708;50.660;6.778;2024-02-23T08:43:43;5.63;;;1.20;;
11305;SDS011;5708;50.660;6.778;2024-02-23T08:46:08;4.13;;;1.00;;
11305;SDS011;5708;50.660;6.778;2024-02-23T08:48:34;5.22;;;1.20;;
11305;SDS011;5708;50.660;6.778;2024-02-23T08:50:59;5.72;;;1.10;;
11305;SDS011;5708;50.660;6.778;2024-02-23T08:53:24;4.50;;;0.88;;
11305;SDS011;5708;50.660;6.778;2024-02-23T08:55:50;4.15;;;1.30;;
11305;SDS011;5708;50.660;6.778;2024-02-23T08:58:15;5.45;;;0.70;;
11305;SDS011;5708;50.660;6.778;2024-02-23T09:00:40;5.53;;;1.23;;
11305;SDS011;5708;50.660;6.778;2024-02-23T09:03:06;2.45;;;0.70;;
11305;SDS011;5708;50.660;6.778;2024-02-23T09:05:31;7.40;;;1.60;;
11305;SDS011;5708;50.660;6.778;2024-02-23T09:07:56;3.65;;;0.65;;
11305;SDS011;5708;50.660;6.778;2024-02-23T09:10:22;4.07;;;0.90;;
11305;SDS011;5708;50.660;6.778;2024-02-23T09:12:47;5.78;;;1.23;;
11305;SDS011;5708;50.660;6.778;2024-02-23T09:15:12;3.53;;;0.75;;
11305;SDS011;5708;50.660;6.778;2024-02-23T09:17:39;5.55;;;1.05;;
11305;SDS011;5708;50.660;6.778;2024-02-23T09:20:05;3.85;;;1.02;;
11305;SDS011;5708;50.660;6.778;2024-02-23T09:22:32;5.70;;;0.80;;
11305;SDS011;5708;50.660;6.778;2024-02-23T09:24:57;5.25;;;0.95;;
11305;SDS011;5708;50.660;6.778;2024-02-23T09:27:23;4.72;;;0.80;;
11305;SDS011;5708;50.660;6.778;2024-02-23T09:29:48;3.33;;;0.70;;
11305;SDS011;5708;50.660;6.778;2024-02-23T09:32:14;5.30;;;0.82;;
11305;SDS011;5708;50.660;6.778;2024-02-23T09:34:39;5.22;;;0.95;;
11305;SDS011;5708;50.660;6.778;2024-02-23T09:37:04;2.83;;;0.63;;
11305;SDS011;5708;50.660;6.778;2024-02-23T09:39:30;4.57;;;1.08;;
11305;SDS011;5708;50.660;6.778;2024-02-23T09:41:55;4.68;;;1.13;;
11305;SDS011;5708;50.660;6.778;2024-02-23T09:44:26;5.03;;;0.80;;
11305;SDS011;5708;50.660;6.778;2024-02-23T09:46:52;7.18;;;1.50;;
11305;SDS011;5708;50.660;6.778;2024-02-23T09:49:17;6.53;;;2.45;;
11305;SDS011;5708;50.660;6.778;2024-02-23T09:51:43;7.15;;;1.60;;
11305;SDS011;5708;50.660;6.778;2024-02-23T09:54:08;6.10;;;1.10;;
11305;SDS011;5708;50.660;6.778;2024-02-23T09:56:34;8.25;;;1.83;;
11305;SDS011;5708;50.660;6.778;2024-02-23T09:59:02;6.47;;;1.75;;
11305;SDS011;5708;50.660;6.778;2024-02-23T10:01:28;4.90;;;1.83;;
11305;SDS011;5708;50.660;6.778;2024-02-23T10:04:03;6.32;;;1.77;;
11305;SDS011;5708;50.660;6.778;2024-02-23T10:06:29;2.30;;;1.10;;
11305;SDS011;5708;50.660;6.778;2024-02-23T10:08:55;4.82;;;1.30;;
11305;SDS011;5708;50.660;6.778;2024-02-23T10:11:20;2.40;;;0.70;;
11305;SDS011;5708;50.660;6.778;2024-02-23T10:13:47;3.47;;;0.90;;
11305;SDS011;5708;50.660;6.778;2024-02-23T10:16:14;4.15;;;0.80;;
11305;SDS011;5708;50.660;6.778;2024-02-23T10:18:40;7.60;;;1.27;;
11305;SDS011;5708;50.660;6.778;2024-02-23T10:21:05;4.65;;;1.10;;
11305;SDS011;5708;50.660;6.778;2024-02-23T10:23:30;5.80;;;1.17;;
11305;SDS011;5708;50.660;6.778;2024-02-23T10:25:56;5.45;;;0.85;;
11305;SDS011;5708;50.660;6.778;2024-02-23T10:28:21;4.20;;;0.70;;
11305;SDS011;5708;50.660;6.778;2024-02-23T10:30:47;2.63;;;0.80;;
11305;SDS011;5708;50.660;6.778;2024-02-23T10:33:13;4.25;;;0.73;;
11305;SDS011;5708;50.660;6.778;2024-02-23T10:35:39;4.68;;;0.60;;
11305;SDS011;5708;50.660;6.778;2024-02-23T10:38:05;7.30;;;1.05;;
11305;SDS011;5708;50.660;6.778;2024-02-23T10:40:34;3.85;;;0.80;;
11305;SDS011;5708;50.660;6.778;2024-02-23T10:43:05;6.00;;;0.80;;
11305;SDS011;5708;50.660;6.778;2024-02-23T10:45:33;6.35;;;0.70;;
11305;SDS011;5708;50.660;6.778;2024-02-23T10:47:58;4.15;;;0.77;;
11305;SDS011;5708;50.660;6.778;2024-02-23T10:50:24;5.60;;;0.93;;
11305;SDS011;5708;50.660;6.778;2024-02-23T10:52:51;5.15;;;0.80;;
11305;SDS011;5708;50.660;6.778;2024-02-23T10:55:17;6.10;;;0.75;;
11305;SDS011;5708;50.660;6.778;2024-02-23T10:57:43;5.53;;;0.80;;
11305;SDS011;5708;50.660;6.778;2024-02-23T11:00:09;4.57;;;1.10;;
11305;SDS011;5708;50.660;6.778;2024-02-23T11:02:36;6.80;;;1.10;;
11305;SDS011;5708;50.660;6.778;2024-02-23T11:05:05;5.78;;;0.80;;
11305;SDS011;5708;50.660;6.778;2024-02-23T11:07:34;4.72;;;0.77;;
11305;SDS011;5708;50.660;6.778;2024-02-23T11:10:04;4.35;;;0.68;;
11305;SDS011;5708;50.660;6.778;2024-02-23T11:12:29;5.47;;;0.73;;
11305;SDS011;5708;50.660;6.778;2024-02-23T11:14:59;5.28;;;0.68;;
11305;SDS011;5708;50.660;6.778;2024-02-23T11:17:32;5.70;;;0.85;;
11305;SDS011;5708;50.660;6.778;2024-02-23T11:20:04;4.47;;;1.00;;
11305;SDS011;5708;50.660;6.778;2024-02-23T11:22:30;3.47;;;0.65;;
11305;SDS011;5708;50.660;6.778;2024-02-23T11:25:00;3.90;;;0.73;;
11305;SDS011;5708;50.660;6.778;2024-02-23T11:27:30;2.65;;;1.00;;
11305;SDS011;5708;50.660;6.778;2024-02-23T11:30:03;5.15;;;1.27;;
11305;SDS011;5708;50.660;6.778;2024-02-23T11:32:40;5.38;;;1.13;;
11305;SDS011;5708;50.660;6.778;2024-02-23T11:35:07;4.75;;;1.33;;
11305;SDS011;5708;50.660;6.778;2024-02-23T11:37:43;8.90;;;2.45;;
11305;SDS011;5708;50.660;6.778;2024-02-23T11:40:13;7.25;;;1.85;;
11305;SDS011;5708;50.660;6.778;2024-02-23T11:42:38;6.07;;;1.88;;
11305;SDS011;5708;50.660;6.778;2024-02-23T11:45:06;5.95;;;1.75;;
11305;SDS011;5708;50.660;6.778;2024-02-23T11:47:32;4.15;;;1.63;;
11305;SDS011;5708;50.660;6.778;2024-02-23T11:49:57;5.78;;;1.48;;
11305;SDS011;5708;50.660;6.778;2024-02-23T11:52:22;9.07;;;1.80;;
11305;SDS011;5708;50.660;6.778;2024-02-23T11:54:48;4.70;;;1.30;;
11305;SDS011;5708;50.660;6.778;2024-02-23T11:57:13;6.00;;;1.40;;
11305;SDS011;5708;50.660;6.778;2024-02-23T11:59:39;6.22;;;2.00;;
11305;SDS011;5708;50.660;6.778;2024-02-23T12:02:06;10.82;;;2.30;;
11305;SDS011;5708;50.660;6.778;2024-02-23T12:04:32;9.38;;;3.13;;
11305;SDS011;5708;50.660;6.778;2024-02-23T12:06:57;5.55;;;1.23;;
11305;SDS011;5708;50.660;6.778;2024-02-23T12:09:23;4.65;;;1.20;;
11305;SDS011;5708;50.660;6.778;2024-02-23T12:11:48;4.38;;;1.00;;
11305;SDS011;5708;50.660;6.778;2024-02-23T12:14:14;5.68;;;1.13;;
11305;SDS011;5708;50.660;6.778;2024-02-23T12:16:39;5.20;;;0.68;;
11305;SDS011;5708;50.660;6.778;2024-02-23T12:19:05;3.47;;;0.80;;
11305;SDS011;5708;50.660;6.778;2024-02-23T12:21:33;4.95;;;0.85;;
11305;SDS011;5708;50.660;6.778;2024-02-23T12:23:59;5.70;;;2.03;;
11305;SDS011;5708;50.660;6.778;2024-02-23T12:26:24;4.53;;;1.60;;
11305;SDS011;5708;50.660;6.778;2024-02-23T12:28:50;8.40;;;1.48;;
11305;SDS011;5708;50.660;6.778;2024-02-23T12:31:15;5.82;;;1.80;;
11305;SDS011;5708;50.660;6.778;2024-02-23T12:33:41;6.22;;;1.58;;
11305;SDS011;5708;50.660;6.778;2024-02-23T12:36:06;4.25;;;0.90;;
11305;SDS011;5708;50.660;6.778;2024-02-23T12:38:33;2.33;;;0.82;;
11305;SDS011;5708;50.660;6.778;2024-02-23T12:40:59;4.10;;;0.80;;
11305;SDS011;5708;50.660;6.778;2024-02-23T12:43:25;4.30;;;0.98;;
11305;SDS011;5708;50.660;6.778;2024-02-23T12:45:51;5.80;;;1.40;;
11305;SDS011;5708;50.660;6.778;2024-02-23T12:48:20;5.43;;;0.80;;
11305;SDS011;5708;50.660;6.778;2024-02-23T12:50:46;5.65;;;0.90;;
11305;SDS011;5708;50.660;6.778;2024-02-23T12:56:04;3.33;;;0.60;;
11305;SDS011;5708;50.660;6.778;2024-02-23T12:58:33;4.80;;;1.52;;
11305;SDS011;5708;50.660;6.778;2024-02-23T13:01:00;2.78;;;0.73;;
11305;SDS011;5708;50.660;6.778;2024-02-23T13:03:25;6.55;;;0.70;;
11305;SDS011;5708;50.660;6.778;2024-02-23T13:05:51;3.88;;;0.50;;
11305;SDS011;5708;50.660;6.778;2024-02-23T13:08:18;4.43;;;0.90;;
11305;SDS011;5708;50.660;6.778;2024-02-23T13:10:43;3.20;;;0.80;;
11305;SDS011;5708;50.660;6.778;2024-02-23T13:13:09;5.43;;;0.82;;
11305;SDS011;5708;50.660;6.778;2024-02-23T13:15:34;2.45;;;0.60;;
11305;SDS011;5708;50.660;6.778;2024-02-23T13:18:01;4.38;;;0.63;;
11305;SDS011;5708;50.660;6.778;2024-02-23T13:20:27;3.22;;;0.60;;
11305;SDS011;5708;50.660;6.778;2024-02-23T13:22:53;3.70;;;0.63;;
11305;SDS011;5708;50.660;6.778;2024-02-23T13:25:18;4.07;;;0.52;;
11305;SDS011;5708;50.660;6.778;2024-02-23T13:27:43;1.77;;;0.60;;
11305;SDS011;5708;50.660;6.778;2024-02-23T13:30:09;1.40;;;0.60;;
11305;SDS011;5708;50.660;6.778;2024-02-23T13:32:34;4.03;;;0.75;;
11305;SDS011;5708;50.660;6.778;2024-02-23T13:35:00;4.05;;;0.80;;
11305;SDS011;5708;50.660;6.778;2024-02-23T13:37:29;4.22;;;1.10;;
11305;SDS011;5708;50.660;6.778;2024-02-23T13:39:54;3.50;;;0.90;;
11305;SDS011;5708;50.660;6.778;2024-02-23T13:42:20;3.70;;;1.00;;
11305;SDS011;5708;50.660;6.778;2024-02-23T13:44:45;3.78;;;0.70;;
11305;SDS011;5708;50.660;6.778;2024-02-23T13:47:11;4.60;;;0.80;;
11305;SDS011;5708;50.660;6.778;2024-02-23T13:49:37;4.85;;;0.60;;
11305;SDS011;5708;50.660;6.778;2024-02-23T13:52:02;4.55;;;0.82;;
11305;SDS011;5708;50.660;6.778;2024-02-23T13:54:27;4.30;;;1.67;;
11305;SDS011;5708;50.660;6.778;2024-02-23T13:56:53;7.47;;;1.58;;
11305;SDS011;5708;50.660;6.778;2024-02-23T13:59:18;4.57;;;0.95;;
11305;SDS011;5708;50.660;6.778;2024-02-23T14:01:44;4.95;;;0.75;;
11305;SDS011;5708;50.660;6.778;2024-02-23T14:04:10;5.10;;;0.70;;
11305;SDS011;5708;50.660;6.778;2024-02-23T14:06:35;3.47;;;0.98;;
11305;SDS011;5708;50.660;6.778;2024-02-23T14:09:00;4.20;;;0.55;;
11305;SDS011;5708;50.660;6.778;2024-02-23T14:11:28;5.53;;;1.08;;
11305;SDS011;5708;50.660;6.778;2024-02-23T14:13:53;6.20;;;0.70;;
11305;SDS011;5708;50.660;6.778;2024-02-23T14:16:19;6.80;;;0.85;;
11305;SDS011;5708;50.660;6.778;2024-02-23T14:18:44;5.05;;;1.60;;
11305;SDS011;5708;50.660;6.778;2024-02-23T14:21:10;4.32;;;1.33;;
11305;SDS011;5708;50.660;6.778;2024-02-23T14:23:36;6.68;;;2.20;;
11305;SDS011;5708;50.660;6.778;2024-02-23T14:26:02;6.15;;;1.77;;
11305;SDS011;5708;50.660;6.778;2024-02-23T14:28:28;3.55;;;1.13;;
11305;SDS011;5708;50.660;6.778;2024-02-23T14:30:53;5.03;;;1.00;;
11305;SDS011;5708;50.660;6.778;2024-02-23T14:33:19;3.55;;;1.10;;
11305;SDS011;5708;50.660;6.778;2024-02-23T14:35:45;3.45;;;0.70;;
11305;SDS011;5708;50.660;6.778;2024-02-23T14:38:10;3.17;;;0.90;;
11305;SDS011;5708;50.660;6.778;2024-02-23T14:40:36;4.95;;;0.90;;
11305;SDS011;5708;50.660;6.778;2024-02-23T14:43:02;3.22;;;0.68;;
11305;SDS011;5708;50.660;6.778;2024-02-23T14:45:28;2.85;;;0.70;;
11305;SDS011;5708;50.660;6.778;2024-02-23T14:47:53;2.30;;;0.60;;
11305;SDS011;5708;50.660;6.778;2024-02-23T14:50:19;1.83;;;0.60;;
11305;SDS011;5708;50.660;6.778;2024-02-23T14:52:44;3.10;;;0.90;;
11305;SDS011;5708;50.660;6.778;2024-02-23T14:55:10;6.65;;;0.90;;